Williamsburg, Missouri
Current Conditions -  °F | °C
As of 9:54 PM on Saturday 22 Nov 2014 (Local Time) from KCOU Reporting Station
Overcast Overcast  
Wind Chill: 54°   Ceiling: 1300
Heat Index: 54°   Visibility: 10mi
Dew Point: 50°   Wind: 15mph
Humidity: 86%   Direction: 170°S
Pressure: 29.82"   Gusts: NA
Location:  38.92°N, 91.7°W
Report Text: KCOU 230354Z AUTO 17013KT 10SM OVC013 12/10 A2982 RMK AO2 SLP098 T01220100 $
Loading
Personal Weather Stations






























Interactive Weather Map New forecast layout! Learn more

10-Day Weather Forecast

Advertisements
Track Severe Weather on mobile